x

Canaveral 20 Nm East Of Cape Canaveral, Fl (41009) Wave Buoy

8:50am - Thu 28th Aug 2014 All times are EDT. -4 hours from GMT.

  • Sig Wave height 6.6ft
  • Swell Direction
  • Peak Period 10s
  • Average Period 8s
  • Wind
    2mph, 4mph gusts
  • Sea Temp 82°f
  • Air Temp 82°f
  • Sea Pressure 1016.6mb
  • Canaveral 20 Nm East Of Cape Canaveral, Fl
  • Canaveral 20 Nm East Of Cape Canaveral, Fl

More Historic Weather Station data

Upgrade to MSW Pro to gain access to the past 30 days of data for over 8000 Wavebouys and Weather Stations around the globe.

Join Pro

Comparision Forecast

View Surf forecast
   
Thu 08/28 8:50am 6.5ft 10s 8s 2 4 mph 1016.6mb 82f 82f
8:20am  -   -   -  2 4 mph 1016.3mb 82f 83f
7:50am 6.5ft 11s 8s 2
mph
1016.2mb 82f 82f
7:20am  -   -   -  2 4 mph 1015.9mb 82f 82f
6:50am 7ft 10s 8s 4 7 mph 1015.6mb 82f 82f
6:20am  -   -   -  4 7 mph 1015.5mb 82f 82f
5:50am 7ft 11s 8s 4
mph
1015.4mb 82f 82f
5:20am  -   -   -  2 4 mph 1015.2mb 82f 82f
4:50am 6.5ft 11s 8s 4 7 mph 1015.2mb 82f 82f
4:20am  -   -   -  4 7 mph 1015.3mb 83f 82f
3:50am 7ft 11s 8s 4 7 mph 1015.3mb 83f 82f
3:20am  -   -   -  7
mph
1015.3mb 83f 82f
2:50am 7ft 11s 8s 4 7 mph 1015.5mb 83f 82f
2:20am  -   -   -  9
mph
1015.6mb 83f 82f
1:50am 7ft 11s 8s 7 9 mph 1016.1mb 83f 82f
1:20am  -   -   -  7 11 mph 1016.1mb 83f 82f
12:50am 7.5ft 11s 8s 9 11 mph 1016.1mb 83f 83f
12:20am  -   -   -  9 11 mph 1016mb 83f 82f
Wed 08/27 11:50pm 7ft 11s 8s 9 13 mph 1016mb 83f 82f
11:20pm  -   -   -  11 13 mph 1016.1mb 83f 82f
10:50pm 7ft 11s 8s 9 13 mph 1016.2mb 83f 82f
10:20pm  -   -   -  11 16 mph 1016mb 83f 82f
9:50pm 6ft 11s 7s 13 16 mph 1015.9mb 83f 83f
9:20pm  -   -   -  13 16 mph 1015.7mb 83f 83f
8:50pm 6.5ft 11s 7s 11 13 mph 1015.6mb 83f 82f
8:20pm  -   -   -  11 13 mph 1015.2mb 83f 82f
7:50pm 6ft 9s 7s 13 16 mph 1014.9mb 83f 81f
7:20pm  -   -   -  18 20 mph 1014.6mb 83f 81f
6:20pm  -   -   -  16 20 mph 1014.6mb 83f 82f
5:50pm 5.5ft 10s 7s 16 20 mph 1014.6mb 83f 82f
5:20pm  -   -   -  13 18 mph 1014.5mb 83f 82f
4:50pm 5.5ft 11s 7s 13 16 mph 1014.6mb 83f 82f
4:20pm  -   -   -  13 16 mph 1014.5mb 83f 82f
3:20pm  -   -   -  16 18 mph 1014.5mb 83f 82f
2:50pm 5.5ft 8s 6s 13 16 mph 1014.8mb 83f 81f
2:20pm  -   -   -  11 13 mph 1015.2mb 83f 81f
1:50pm 5ft 10s 7s 11 13 mph 1015.2mb 83f 83f
1:20pm  -   -   -  11
mph
1015.3mb 83f 82f
12:50pm 6ft 10s 7s 9 11 mph 1015.4mb 83f 82f
12:20pm  -   -   -  11
mph
1015.5mb 83f 82f
11:50am 6ft 11s 7s 9 11 mph 1015.5mb 83f 82f
11:20am  -   -   -  11 16 mph 1015.4mb 83f 81f
10:50am 6ft 9s 7s 11 13 mph 1015.2mb 83f 81f
10:20am  -   -   -  11 16 mph 1014.8mb 83f 80f
9:50am 6.5ft 9s 7s 11 13 mph 1014.8mb 82f 81f
9:20am  -   -   -  9 11 mph 1014.7mb 82f 82f
8:50am 6ft 9s 7s 9 11 mph 1014.5mb 82f 82f
8:20am  -   -   -  9
mph
1014.2mb 82f 83f
7:50am 6ft 9s 6s 9 11 mph 1014.2mb 82f 82f
7:20am  -   -   -  4 7 mph 1014mb 82f 81f
6:50am 6ft 9s 7s 11 13 mph 1013.7mb 82f 80f
6:20am  -   -   -  9
mph
1013.5mb 82f 82f
5:50am 6ft 9s 7s 9 11 mph 1013.1mb 82f 82f
5:20am  -   -   -  9 13 mph 1013mb 82f 81f
4:50am 6ft 8s 6s 7 9 mph 1013mb 82f 82f
4:20am  -   -   -  7 9 mph 1013mb 82f 82f
3:50am 7ft 9s 7s 9 11 mph 1012.9mb 82f 82f
3:20am  -   -   -  9 11 mph 1013mb 82f 82f
2:50am 6.5ft 9s 7s 9 13 mph 1013mb 82f 82f
2:20am  -   -   -  13 16 mph 1012.9mb 82f 83f
1:50am 6.5ft 10s 7s 13 18 mph 1013mb 82f 83f
1:20am  -   -   -  16 18 mph 1013.3mb 82f 83f
12:50am 6.5ft 9s 7s 16 20 mph 1013.5mb 82f 83f
12:20am  -   -   -  16 20 mph 1013.3mb 82f 83f
Tue 08/26 11:50pm 6ft 9s 6s 16 20 mph 1013.6mb 82f 83f
11:20pm  -   -   -  16 18 mph 1013.9mb 82f 83f
10:50pm 6ft 9s 6s 16 18 mph 1013.8mb 82f 83f
10:20pm  -   -   -  16 18 mph 1013.6mb 82f 83f
9:50pm 6ft 8s 6s 13 18 mph 1013.5mb 82f 83f
9:20pm  -   -   -  16 18 mph 1013.2mb 82f 83f
8:50pm 6ft 9s 6s 18 20 mph 1013mb 82f 83f
8:20pm  -   -   -  18 22 mph 1012.7mb 82f 83f
7:50pm 7ft 9s 6s 18 22 mph 1012.6mb 82f 83f
6:50pm 6.5ft 9s 6s 20 22 mph 1012.5mb 82f 83f
6:20pm  -   -   -  20 25 mph 1012.5mb 82f 83f
5:50pm 6ft 9s 6s 20 25 mph 1012.4mb 82f 83f
5:20pm  -   -   -  18 20 mph 1012.7mb 82f 83f
4:50pm 7ft 9s 7s 18 20 mph 1012.6mb 83f 84f
4:20pm  -   -   -  18
mph
1012.6mb 83f 83f
3:50pm 7ft 8s 6s 18 20 mph 1013.1mb 83f 83f
3:20pm  -   -   -  18 20 mph 1013.3mb 82f 83f
2:50pm 6ft 9s 6s 18 22 mph 1013.3mb 82f 83f
2:20pm  -   -   -  16 20 mph 1013.5mb 82f 83f
1:50pm 7ft 9s 6s 16 20 mph 1013.7mb 82f 83f
1:20pm  -   -   -  18 20 mph 1013.5mb 82f 83f
12:50pm 7ft 8s 6s 18 22 mph 1013.4mb 82f 83f
12:20pm  -   -   -  20 22 mph 1013.2mb 82f 83f
11:50am 7ft 8s 6s 18 22 mph 1013.4mb 82f 83f
11:20am  -   -   -  20 22 mph 1013.5mb 82f 83f
10:50am 7ft 8s 6s 20 22 mph 1013.2mb 82f 83f
10:20am  -   -   -  22 27 mph 1012.7mb 82f 83f
9:50am 7ft 8s 6s 20 25 mph 1012.6mb 82f 83f
9:20am  -   -   -  20 25 mph 1012.4mb 82f 83f
8:50am 8ft 8s 6s 20 25 mph 1012mb 82f 83f
8:20am  -   -   -  18 22 mph 1012mb 82f 83f
7:50am 7ft 8s 6s 22 27 mph 1011.7mb 82f 83f
7:20am  -   -   -  22 27 mph 1011.3mb 82f 82f
6:50am 7ft 8s 6s 25 27 mph 1010.9mb 82f 83f
6:20am  -   -   -  20 27 mph 1010.9mb 82f 82f
5:50am 7ft 8s 6s 22 27 mph 1010.7mb 82f 83f
5:20am  -   -   -  25 29 mph 1010.3mb 82f 83f
4:50am 7ft 9s 6s 22 27 mph 1010.3mb 82f 82f
4:20am  -   -   -  20 25 mph 1010.3mb 82f 83f
3:50am 7ft 8s 6s 20 22 mph 1010.6mb 82f 83f
3:20am  -   -   -  20 25 mph 1010.8mb 82f 83f
2:50am 8ft 9s 6s 18 22 mph 1011.2mb 82f 82f
2:20am  -   -   -  18 22 mph 1011.4mb 82f 83f
1:50am 7ft 7s 6s 20 25 mph 1011.3mb 82f 83f
1:20am  -   -   -  20 25 mph 1011.3mb 82f 83f
12:50am 7.5ft 8s 6s 22 27 mph 1011.1mb 82f 83f
12:20am  -   -   -  22 27 mph 1011.1mb 82f 83f
Mon 08/25 11:50pm 7ft 9s 6s 27 29 mph 1011mb 82f 83f
11:20pm  -   -   -  20 25 mph 1011mb 83f 83f
10:50pm 8ft 10s 7s 22 25 mph 1011.1mb 83f 83f
10:20pm  -   -   -  20 25 mph 1011mb 83f 83f
9:50pm 7ft 10s 6s 20 25 mph 1010.7mb 83f 83f
9:20pm  -   -   -  20 22 mph 1010.6mb 83f 83f
8:50pm 7.5ft 10s 6s 20 25 mph 1010.7mb 83f 83f
8:20pm  -   -   -  20 25 mph 1010.4mb 83f 83f
7:50pm 7.5ft 9s 6s 20 25 mph 1010.3mb 83f 83f
7:20pm  -   -   -  20 25 mph 1010mb 83f 83f
6:50pm 7ft 8s 6s 20 25 mph 1010mb 83f 84f
6:20pm  -   -   -  22 27 mph 1009.7mb 83f 83f
5:50pm 7ft 9s 6s 22 27 mph 1009.5mb 83f 83f
5:20pm  -   -   -  20 25 mph 1009.5mb 84f 83f
4:50pm 7ft 10s 6s 22 27 mph 1009.6mb 84f 83f
4:20pm  -   -   -  20 27 mph 1009.6mb 84f 83f
3:50pm 8ft 10s 7s 22 27 mph 1009.8mb 84f 84f
2:50pm 8ft 10s 6s 22 29 mph 1009.9mb 84f 83f
2:20pm  -   -   -  22 29 mph 1010.2mb 84f 84f
1:50pm 8.5ft 10s 6s 25 27 mph 1010.3mb 84f 83f
1:20pm  -   -   -  25 29 mph 1010.4mb 84f 83f
12:50pm 8ft 10s 6s 22 27 mph 1010.5mb 84f 83f
12:20pm  -   -   -  22 29 mph 1010.5mb 84f 83f
11:50am 9ft 10s 7s 25 29 mph 1010.3mb 84f 83f
11:20am  -   -   -  25 29 mph 1010.3mb 84f 83f
10:50am 8ft 10s 6s 25 29 mph 1010.1mb 84f 83f
10:20am  -   -   -  27 31 mph 1009.6mb 84f 83f
9:50am 8ft 9s 6s 27 34 mph 1009.2mb 84f 83f
9:20am  -   -   -  29 34 mph 1009mb 84f 83f
8:50am 7.5ft 9s 6s 25 31 mph 1009.1mb 84f 83f
8:20am  -   -   -  27 31 mph 1008.9mb 84f 83f
7:50am 6.5ft 8s 6s 27 31 mph 1008.8mb 84f 83f
7:20am  -   -   -  25 29 mph 1008.7mb 84f 83f
6:50am 6.5ft 10s 6s 25 29 mph 1008.3mb 84f 83f
6:20am  -   -   -  25 31 mph 1008mb 84f 83f
5:50am 6.5ft 8s 6s 22 29 mph 1008mb 84f 83f
5:20am  -   -   -  22 27 mph 1007.9mb 84f 84f
4:50am 6ft 8s 5s 22 29 mph 1007.9mb 84f 83f
4:20am  -   -   -  20 27 mph 1007.9mb 84f 83f
3:50am 6ft 7s 5s 20 25 mph 1008.1mb 84f 84f
3:20am  -   -   -  22 25 mph 1008mb 84f 84f
2:50am 5.5ft 7s 5s 22 27 mph 1008.2mb 84f 84f
2:20am  -   -   -  20 22 mph 1008.7mb 84f 84f
1:50am 5.5ft 7s 5s 22 27 mph 1008.8mb 85f 84f
1:20am  -   -   -  20 25 mph 1009mb 85f 84f
12:50am 4.5ft 10s 5s 22 27 mph 1009.2mb 85f 84f
12:20am  -   -   -  20 25 mph 1009.6mb 85f 85f
Sun 08/24 11:50pm 3.5ft 11s 5s 20 22 mph 1009.5mb 85f 85f
11:20pm  -   -   -  18 20 mph 1009.1mb 85f 85f
10:50pm 4ft 10s 6s 16 25 mph 1009.4mb 85f 84f
10:20pm  -   -   -  16 18 mph 1009.2mb 85f 85f
9:50pm 3.5ft 10s 5s 16 20 mph 1009.2mb 85f 85f
9:20pm  -   -   -  16 20 mph 1009.1mb 85f 85f
8:50pm 3ft 11s 5s 18 20 mph 1008.7mb 85f 85f
8:20pm  -   -   -  18 20 mph 1008.5mb 85f 86f
7:50pm 2.5ft 10s 5s 16 20 mph 1008.5mb 85f 86f
7:20pm  -   -   -  18 20 mph 1008.2mb 85f 86f
6:50pm 2.5ft 10s 6s 13 18 mph 1008.2mb 85f 85f
6:20pm  -   -   -  13 16 mph 1008.3mb 85f 85f
5:50pm 2ft 9s 5s 13 16 mph 1008.6mb 85f 85f
5:20pm  -   -   -  11 13 mph 1008.7mb 85f 84f
4:50pm 2ft 10s 6s 11 13 mph 1008.8mb 85f 84f
4:20pm  -   -   -  11 13 mph 1009mb 85f 84f
3:20pm  -   -   -  13 16 mph 1009.6mb 85f 83f
2:50pm 1.3ft 9s 7s 13 16 mph 1010.1mb 85f 83f
2:20pm  -   -   -  11
mph
1010.5mb 85f 83f